createdAt,value
2022-07-29T00:01:44.535Z,17.69
2022-07-29T00:04:13.533Z,17.66
2022-07-29T00:06:42.711Z,17.66
2022-07-29T00:09:11.295Z,17.64
2022-07-29T00:11:39.443Z,17.64
2022-07-29T00:14:08.152Z,17.63
2022-07-29T00:16:37.072Z,17.62
2022-07-29T00:19:05.829Z,17.61
2022-07-29T00:21:35.641Z,17.60
2022-07-29T00:24:04.687Z,17.59
2022-07-29T00:26:33.523Z,17.57
2022-07-29T00:29:32.342Z,17.56
2022-07-29T00:31:52.139Z,17.54
2022-07-29T00:34:39.042Z,17.54
2022-07-29T00:37:07.848Z,17.53
2022-07-29T00:39:35.970Z,17.54
2022-07-29T00:42:06.325Z,17.53
2022-07-29T00:44:39.584Z,17.52
2022-07-29T00:47:08.704Z,17.51
2022-07-29T00:49:40.575Z,17.50
2022-07-29T00:52:10.920Z,17.50
2022-07-29T00:54:44.464Z,17.48
2022-07-29T00:57:14.050Z,17.46
2022-07-29T00:59:42.833Z,17.44
2022-07-29T01:02:11.487Z,17.41
2022-07-29T01:04:40.789Z,17.39
2022-07-29T01:07:09.099Z,17.38
2022-07-29T01:09:46.251Z,17.37
2022-07-29T01:12:20.294Z,17.35
2022-07-29T01:14:50.329Z,17.33
2022-07-29T01:17:23.600Z,17.30
2022-07-29T01:20:05.129Z,17.28
2022-07-29T01:22:35.957Z,17.27
2022-07-29T01:25:14.123Z,17.26
2022-07-29T01:27:53.566Z,17.26
2022-07-29T01:30:26.110Z,17.24
2022-07-29T01:33:35.266Z,17.22
2022-07-29T01:36:09.199Z,17.20
2022-07-29T01:38:40.827Z,17.17
2022-07-29T01:41:15.992Z,17.16
2022-07-29T01:43:58.712Z,17.14
2022-07-29T01:46:37.477Z,17.11
2022-07-29T01:49:23.250Z,17.09
2022-07-29T01:52:01.983Z,17.06
2022-07-29T01:54:39.107Z,17.03
2022-07-29T01:57:11.070Z,17.00
2022-07-29T01:59:42.233Z,16.97
2022-07-29T02:02:13.435Z,16.94
2022-07-29T02:04:44.471Z,16.91
2022-07-29T02:07:16.941Z,16.88
2022-07-29T02:09:47.050Z,16.86
2022-07-29T02:12:18.326Z,16.84
2022-07-29T02:14:50.147Z,16.83
2022-07-29T02:17:25.001Z,16.80
2022-07-29T02:19:57.621Z,16.78
2022-07-29T02:22:29.853Z,16.77
2022-07-29T02:25:00.101Z,16.75
2022-07-29T02:27:30.370Z,16.73
2022-07-29T02:30:01.870Z,16.72
2022-07-29T02:32:32.379Z,16.71
2022-07-29T02:35:02.804Z,16.71
2022-07-29T02:37:34.447Z,16.71
2022-07-29T02:40:04.292Z,16.70
2022-07-29T02:42:34.210Z,16.69
2022-07-29T02:45:01.961Z,16.68
2022-07-29T02:47:48.499Z,16.66
2022-07-29T02:50:33.960Z,16.64
2022-07-29T02:53:17.567Z,16.63
2022-07-29T02:55:52.036Z,16.61
2022-07-29T02:58:29.789Z,16.59
2022-07-29T03:01:21.345Z,16.57
2022-07-29T03:03:54.677Z,16.56
2022-07-29T03:06:28.767Z,16.55
2022-07-29T03:09:13.287Z,16.54
2022-07-29T03:11:49.598Z,16.53
2022-07-29T03:14:21.394Z,16.52
2022-07-29T03:16:51.930Z,16.51
2022-07-29T03:19:21.640Z,16.52
2022-07-29T03:21:49.657Z,16.52
2022-07-29T03:24:33.301Z,16.52
2022-07-29T03:27:01.355Z,16.52
2022-07-29T03:29:33.119Z,16.52
2022-07-29T03:32:08.246Z,16.51
2022-07-29T03:34:39.117Z,16.51
2022-07-29T03:37:08.528Z,16.51
2022-07-29T03:39:42.060Z,16.52
2022-07-29T03:42:13.932Z,16.54
2022-07-29T03:44:45.669Z,16.56
2022-07-29T03:47:19.085Z,16.58
2022-07-29T03:49:53.568Z,16.58
2022-07-29T03:52:22.482Z,16.59
2022-07-29T03:54:50.722Z,16.58
2022-07-29T03:57:21.394Z,16.58
2022-07-29T03:59:53.171Z,16.58
2022-07-29T04:02:28.729Z,16.56
2022-07-29T04:04:59.249Z,16.57
2022-07-29T04:07:27.451Z,16.59
2022-07-29T04:09:55.814Z,16.59
2022-07-29T04:12:23.783Z,16.60
2022-07-29T04:14:51.599Z,16.61
2022-07-29T04:17:19.335Z,16.61
2022-07-29T04:19:47.457Z,16.64
2022-07-29T04:22:15.453Z,16.67
2022-07-29T04:24:44.547Z,16.71
2022-07-29T04:27:12.981Z,16.74
2022-07-29T04:29:56.554Z,16.78
2022-07-29T04:32:27.859Z,16.83
2022-07-29T04:34:55.589Z,16.86
2022-07-29T04:37:23.524Z,16.92
2022-07-29T04:39:51.955Z,16.96
2022-07-29T04:42:25.199Z,17.01
2022-07-29T04:44:55.846Z,17.06
2022-07-29T04:47:24.766Z,17.11
2022-07-29T04:49:53.009Z,17.16
2022-07-29T04:52:21.151Z,17.21
2022-07-29T04:54:50.096Z,17.24
2022-07-29T04:57:18.116Z,17.27
2022-07-29T04:59:46.187Z,17.31
2022-07-29T05:02:14.542Z,17.35
2022-07-29T05:04:44.949Z,17.42
2022-07-29T05:07:13.117Z,17.50
2022-07-29T05:09:41.447Z,17.57
2022-07-29T05:12:09.692Z,17.64
2022-07-29T05:14:37.783Z,17.69
2022-07-29T05:17:06.367Z,17.73
2022-07-29T05:19:34.438Z,17.80
2022-07-29T05:22:07.619Z,17.88
2022-07-29T05:24:35.402Z,17.95
2022-07-29T05:27:03.114Z,18.02
2022-07-29T05:29:43.907Z,18.09
2022-07-29T05:32:14.734Z,18.18
2022-07-29T05:34:50.834Z,18.26
2022-07-29T05:37:21.484Z,18.35
2022-07-29T05:39:56.204Z,18.44
2022-07-29T05:42:27.030Z,18.53
2022-07-29T05:44:55.086Z,18.61
2022-07-29T05:47:24.495Z,18.68
2022-07-29T05:49:52.795Z,18.76
2022-07-29T05:52:22.146Z,18.82
2022-07-29T05:54:50.157Z,18.88
2022-07-29T05:57:20.065Z,18.94
2022-07-29T05:59:49.198Z,18.99
2022-07-29T06:02:18.059Z,19.05
2022-07-29T06:04:46.631Z,19.10
2022-07-29T06:07:14.389Z,19.17
2022-07-29T06:09:42.370Z,19.26
2022-07-29T06:12:10.714Z,19.35
2022-07-29T06:14:39.622Z,19.43
2022-07-29T06:17:07.679Z,19.51
2022-07-29T06:19:36.786Z,19.59
2022-07-29T06:22:04.884Z,19.69
2022-07-29T06:24:32.918Z,19.80
2022-07-29T06:27:00.881Z,19.91
2022-07-29T06:29:29.064Z,19.99
2022-07-29T06:31:58.034Z,20.06
2022-07-29T06:34:27.175Z,20.13
2022-07-29T06:36:55.531Z,20.19
2022-07-29T06:39:24.729Z,20.26
2022-07-29T06:41:53.036Z,20.32
2022-07-29T06:44:21.124Z,20.38
2022-07-29T06:46:51.384Z,20.43
2022-07-29T06:49:19.365Z,20.48
2022-07-29T06:51:47.663Z,20.52
2022-07-29T06:54:16.265Z,20.57
2022-07-29T06:56:45.217Z,20.68
2022-07-29T06:59:14.476Z,20.85
2022-07-29T07:01:44.647Z,21.02
2022-07-29T07:04:13.893Z,21.15
2022-07-29T07:06:42.214Z,21.30
2022-07-29T07:09:10.503Z,21.47
2022-07-29T07:11:38.866Z,21.72
2022-07-29T07:14:06.856Z,22.02
2022-07-29T07:16:37.552Z,22.46
2022-07-29T07:19:05.563Z,22.95
2022-07-29T07:21:34.661Z,23.45
2022-07-29T07:24:04.581Z,24.15
2022-07-29T07:26:33.142Z,25.03
2022-07-29T07:29:01.674Z,26.19
2022-07-29T07:31:29.494Z,26.99
2022-07-29T07:33:58.606Z,27.42
2022-07-29T07:36:26.569Z,27.53
2022-07-29T07:38:54.540Z,27.51
2022-07-29T07:41:23.677Z,27.65
2022-07-29T07:43:51.775Z,28.39
2022-07-29T07:46:20.481Z,29.72
2022-07-29T07:48:48.899Z,30.94
2022-07-29T07:51:17.011Z,31.89
2022-07-29T07:53:45.992Z,32.96
2022-07-29T07:56:14.057Z,33.93
2022-07-29T07:58:42.148Z,34.78
2022-07-29T08:01:11.115Z,35.72
2022-07-29T08:03:40.177Z,36.58
2022-07-29T08:06:08.307Z,37.35
2022-07-29T08:08:36.820Z,38.09
2022-07-29T08:11:09.416Z,38.81
2022-07-29T08:13:39.606Z,39.48
2022-07-29T08:16:16.834Z,40.05
2022-07-29T08:18:47.063Z,40.63
2022-07-29T08:21:16.725Z,40.97
2022-07-29T08:24:15.898Z,41.02
2022-07-29T08:26:45.006Z,40.16
2022-07-29T08:29:18.374Z,39.09
2022-07-29T08:31:48.775Z,38.01
2022-07-29T08:34:16.824Z,37.30
2022-07-29T08:36:44.548Z,37.53
2022-07-29T08:39:18.859Z,38.54
2022-07-29T08:41:57.193Z,39.43
2022-07-29T08:44:31.040Z,40.21
2022-07-29T08:47:00.411Z,40.82
2022-07-29T08:49:28.521Z,41.30
2022-07-29T08:51:58.561Z,41.95
2022-07-29T08:54:28.631Z,42.64
2022-07-29T08:56:58.768Z,42.92
2022-07-29T08:59:29.738Z,43.07
2022-07-29T09:02:01.513Z,42.52
2022-07-29T09:04:35.624Z,42.61
2022-07-29T09:07:07.057Z,42.88
2022-07-29T09:09:36.036Z,43.02
2022-07-29T09:12:05.269Z,43.10
2022-07-29T09:14:34.354Z,42.90
2022-07-29T09:17:02.622Z,42.39
2022-07-29T09:19:45.431Z,42.20
2022-07-29T09:22:32.993Z,42.19
2022-07-29T09:25:00.942Z,42.61
2022-07-29T09:27:32.176Z,42.96
2022-07-29T09:30:07.195Z,43.24
2022-07-29T09:32:56.788Z,43.46
2022-07-29T09:35:28.948Z,43.29
2022-07-29T09:38:11.618Z,43.24
2022-07-29T09:40:41.236Z,43.07
2022-07-29T09:43:13.659Z,42.97
2022-07-29T09:45:43.287Z,41.91
2022-07-29T09:48:21.043Z,40.78
2022-07-29T09:50:52.100Z,40.20
2022-07-29T09:53:34.705Z,39.50
2022-07-29T09:56:07.361Z,38.69
2022-07-29T09:58:37.513Z,38.62
2022-07-29T10:01:07.659Z,38.26
2022-07-29T10:03:54.198Z,37.63
2022-07-29T10:06:21.988Z,36.86
2022-07-29T10:08:55.122Z,36.22
2022-07-29T10:11:22.963Z,35.62
2022-07-29T10:13:50.764Z,35.04
2022-07-29T10:16:21.214Z,34.50
2022-07-29T10:18:49.150Z,33.97
2022-07-29T10:21:34.871Z,33.58
2022-07-29T10:24:15.094Z,33.17
2022-07-29T10:26:49.066Z,32.83
2022-07-29T10:29:19.187Z,32.51
2022-07-29T10:32:13.607Z,32.13
2022-07-29T10:35:03.125Z,31.72
2022-07-29T10:37:45.736Z,31.41
2022-07-29T10:40:58.053Z,31.18
2022-07-29T10:43:37.123Z,30.91
2022-07-29T10:46:07.349Z,30.68
2022-07-29T10:49:11.504Z,30.44
2022-07-29T10:54:56.923Z,30.18
2022-07-29T10:57:54.209Z,30.12
2022-07-29T11:00:31.856Z,30.05
2022-07-29T11:03:04.693Z,29.95
2022-07-29T11:05:56.554Z,29.79
2022-07-29T11:08:34.177Z,29.65
2022-07-29T11:11:36.971Z,29.53
2022-07-29T11:14:05.557Z,29.41
2022-07-29T11:17:09.254Z,29.31
2022-07-29T11:19:51.142Z,29.18
2022-07-29T11:22:43.132Z,29.07
2022-07-29T11:25:42.851Z,28.95
2022-07-29T11:28:25.124Z,28.92
2022-07-29T11:30:58.085Z,28.95
2022-07-29T11:33:54.356Z,29.00
2022-07-29T11:36:28.332Z,29.05
2022-07-29T11:39:36.772Z,29.09
2022-07-29T11:42:32.401Z,29.10
2022-07-29T11:45:44.360Z,29.10
2022-07-29T11:48:28.798Z,29.05
2022-07-29T11:50:52.081Z,29.09
2022-07-29T11:53:24.483Z,29.13
2022-07-29T11:55:59.843Z,29.18
2022-07-29T11:58:32.771Z,29.22
2022-07-29T12:01:04.801Z,29.25
2022-07-29T12:03:36.921Z,29.20
2022-07-29T12:06:13.993Z,29.19
2022-07-29T12:08:44.795Z,29.25
2022-07-29T12:11:22.615Z,29.31
2022-07-29T12:13:56.194Z,29.28
2022-07-29T12:16:29.427Z,29.24
2022-07-29T12:19:04.181Z,29.24
2022-07-29T12:21:56.456Z,29.24
2022-07-29T12:24:29.474Z,29.22
2022-07-29T12:27:00.827Z,29.22
2022-07-29T12:29:34.814Z,29.20
2022-07-29T12:32:15.065Z,29.17
2022-07-29T12:34:52.160Z,29.13
2022-07-29T12:37:20.654Z,29.12
2022-07-29T12:40:13.671Z,29.14
2022-07-29T12:42:43.646Z,29.13
2022-07-29T12:45:14.388Z,29.13
2022-07-29T12:47:54.909Z,29.08
2022-07-29T12:50:26.555Z,28.97
2022-07-29T12:52:56.176Z,28.84
2022-07-29T12:55:50.095Z,28.70
2022-07-29T12:58:41.869Z,28.55
2022-07-29T13:01:21.092Z,28.43
2022-07-29T13:04:03.792Z,28.31
2022-07-29T13:06:49.677Z,28.20
2022-07-29T13:09:27.543Z,28.14
2022-07-29T13:11:55.499Z,28.08
2022-07-29T13:14:40.100Z,28.02
2022-07-29T13:17:11.286Z,27.95
2022-07-29T13:19:42.852Z,27.91
2022-07-29T13:22:16.428Z,27.94
2022-07-29T13:24:54.422Z,27.96
2022-07-29T13:27:26.205Z,27.97
2022-07-29T13:29:58.641Z,28.01
2022-07-29T13:32:31.293Z,28.08
2022-07-29T13:35:05.351Z,28.17
2022-07-29T13:37:39.097Z,28.25
2022-07-29T13:40:12.642Z,28.32
2022-07-29T13:42:43.177Z,28.40
2022-07-29T13:45:13.859Z,28.45
2022-07-29T13:47:49.270Z,28.50
2022-07-29T13:50:19.331Z,28.51
2022-07-29T13:52:51.044Z,28.53
2022-07-29T13:55:21.162Z,28.55
2022-07-29T13:57:51.281Z,28.57
2022-07-29T14:00:22.323Z,28.60
2022-07-29T14:02:53.247Z,28.61
2022-07-29T14:05:23.277Z,28.61
2022-07-29T14:07:53.294Z,28.61
2022-07-29T14:10:21.308Z,28.62
2022-07-29T14:12:49.256Z,28.62
2022-07-29T14:15:17.189Z,28.61
2022-07-29T14:17:44.901Z,28.63
2022-07-29T14:20:12.642Z,28.61
2022-07-29T14:22:42.609Z,28.58
2022-07-29T14:25:15.000Z,28.58
2022-07-29T14:27:45.631Z,28.59
2022-07-29T14:30:16.102Z,28.60
2022-07-29T14:32:45.885Z,28.64
2022-07-29T14:35:18.356Z,28.65
2022-07-29T14:37:46.026Z,28.67
2022-07-29T14:40:16.036Z,28.68
2022-07-29T14:42:46.050Z,28.69
2022-07-29T14:45:14.773Z,28.70
2022-07-29T14:47:44.525Z,28.71
2022-07-29T14:50:14.639Z,28.70
2022-07-29T14:52:42.707Z,28.71
2022-07-29T14:55:19.402Z,28.72
2022-07-29T14:58:03.061Z,28.74
2022-07-29T15:00:40.434Z,28.76
2022-07-29T15:03:13.241Z,28.76
2022-07-29T15:05:55.654Z,28.76
2022-07-29T15:08:26.457Z,28.76
2022-07-29T15:10:54.394Z,28.73
2022-07-29T15:13:24.629Z,28.73
2022-07-29T15:15:54.869Z,28.71
2022-07-29T15:18:26.013Z,28.71
2022-07-29T15:20:57.800Z,28.70
2022-07-29T15:23:26.635Z,28.71
2022-07-29T15:25:54.421Z,28.71
2022-07-29T15:28:24.141Z,28.73
2022-07-29T15:30:53.887Z,28.73
2022-07-29T15:33:23.688Z,28.73
2022-07-29T15:35:51.519Z,28.74
2022-07-29T15:38:19.336Z,28.74
2022-07-29T15:40:49.801Z,28.75
2022-07-29T15:43:17.672Z,28.76
2022-07-29T15:46:05.502Z,28.78
2022-07-29T15:48:33.917Z,28.77
2022-07-29T15:51:02.165Z,28.77
2022-07-29T15:53:30.473Z,28.76
2022-07-29T15:55:58.346Z,28.75
2022-07-29T15:58:28.297Z,28.74
2022-07-29T16:00:57.724Z,28.73
2022-07-29T16:03:27.872Z,28.73
2022-07-29T16:05:55.733Z,28.70
2022-07-29T16:08:23.440Z,28.66
2022-07-29T16:10:53.522Z,28.63
2022-07-29T16:13:21.572Z,28.58
2022-07-29T16:16:02.874Z,28.53
2022-07-29T16:18:34.636Z,28.49
2022-07-29T16:21:07.587Z,28.44
2022-07-29T16:23:35.334Z,28.40
2022-07-29T16:26:03.045Z,28.35
2022-07-29T16:28:31.992Z,28.29
2022-07-29T16:31:02.359Z,28.24
2022-07-29T16:33:53.625Z,28.18
2022-07-29T16:36:20.590Z,28.12
2022-07-29T16:38:49.365Z,28.07
2022-07-29T16:41:19.098Z,28.03
2022-07-29T16:43:49.285Z,28.00
2022-07-29T16:46:18.930Z,27.95
2022-07-29T16:48:48.551Z,27.92
2022-07-29T16:51:17.117Z,27.88
2022-07-29T16:53:45.432Z,27.83
2022-07-29T16:56:18.115Z,27.76
2022-07-29T16:58:46.071Z,27.68
2022-07-29T17:01:14.680Z,27.59
2022-07-29T17:04:01.492Z,27.51
2022-07-29T17:06:29.542Z,27.43
2022-07-29T17:09:01.359Z,27.34
2022-07-29T17:11:53.424Z,27.26
2022-07-29T17:14:27.203Z,27.18
2022-07-29T17:17:02.263Z,27.11
2022-07-29T17:19:35.347Z,27.06
2022-07-29T17:22:14.086Z,27.01
2022-07-29T17:24:48.267Z,26.96
2022-07-29T17:27:19.786Z,26.91
2022-07-29T17:29:47.550Z,26.86
2022-07-29T17:32:19.913Z,26.82
2022-07-29T17:34:48.023Z,26.79
2022-07-29T17:37:16.348Z,26.74
2022-07-29T17:39:44.525Z,26.69
2022-07-29T17:42:14.787Z,26.64
2022-07-29T17:44:42.651Z,26.60
2022-07-29T17:47:16.041Z,26.58
2022-07-29T17:49:45.676Z,26.55
2022-07-29T17:52:13.821Z,26.51
2022-07-29T17:54:41.689Z,26.47
2022-07-29T17:57:09.559Z,26.45
2022-07-29T17:59:37.270Z,26.41
2022-07-29T18:02:05.498Z,26.37
2022-07-29T18:04:33.870Z,26.32
2022-07-29T18:07:02.017Z,26.28
2022-07-29T18:09:30.124Z,26.24
2022-07-29T18:11:58.154Z,26.19
2022-07-29T18:14:26.271Z,26.15
2022-07-29T18:16:54.430Z,26.12
2022-07-29T18:19:22.699Z,26.09
2022-07-29T18:21:54.615Z,26.05
2022-07-29T18:24:25.868Z,26.01
2022-07-29T18:26:54.103Z,25.98
2022-07-29T18:29:22.291Z,25.94
2022-07-29T18:31:50.316Z,25.91
2022-07-29T18:34:18.299Z,25.87
2022-07-29T18:36:46.374Z,25.83
2022-07-29T18:39:20.485Z,25.78
2022-07-29T18:41:51.514Z,25.75
2022-07-29T18:44:21.959Z,25.71
2022-07-29T18:46:52.131Z,25.67
2022-07-29T18:49:20.165Z,25.65
2022-07-29T18:51:49.717Z,25.63
2022-07-29T18:54:18.144Z,25.61
2022-07-29T18:56:47.065Z,25.59
2022-07-29T18:59:17.136Z,25.58
2022-07-29T19:01:45.647Z,25.56
2022-07-29T19:04:13.522Z,25.55
2022-07-29T19:06:41.368Z,25.53
2022-07-29T19:09:09.122Z,25.51
2022-07-29T19:11:38.249Z,25.49
2022-07-29T19:14:06.387Z,25.47
2022-07-29T19:16:34.501Z,25.45
2022-07-29T19:19:02.880Z,25.42
2022-07-29T19:21:31.278Z,25.41
2022-07-29T19:24:04.247Z,25.39
2022-07-29T19:26:36.747Z,25.37
2022-07-29T19:29:05.791Z,25.35
2022-07-29T19:31:34.440Z,25.34
2022-07-29T19:34:02.291Z,25.34
2022-07-29T19:36:31.431Z,25.33
2022-07-29T19:39:00.602Z,25.31
2022-07-29T19:41:28.535Z,25.30
2022-07-29T19:43:56.360Z,25.28
2022-07-29T19:46:25.079Z,25.25
2022-07-29T19:48:53.609Z,25.22
2022-07-29T19:51:22.928Z,25.19
2022-07-29T19:53:51.594Z,25.14
2022-07-29T19:56:19.591Z,25.11
2022-07-29T19:58:48.414Z,25.06
2022-07-29T20:01:16.858Z,25.04
2022-07-29T20:03:45.094Z,25.00
2022-07-29T20:06:13.331Z,24.98
2022-07-29T20:08:41.051Z,24.95
2022-07-29T20:11:08.817Z,24.92
2022-07-29T20:13:36.698Z,24.88
2022-07-29T20:16:06.497Z,24.84
2022-07-29T20:18:34.850Z,24.78
2022-07-29T20:21:04.861Z,24.73
2022-07-29T20:23:33.468Z,24.70
2022-07-29T20:26:02.864Z,24.65
2022-07-29T20:28:31.293Z,24.60
2022-07-29T20:30:59.077Z,24.55
2022-07-29T20:33:26.852Z,24.49
2022-07-29T20:35:54.875Z,24.46
2022-07-29T20:38:22.665Z,24.43
2022-07-29T20:40:50.992Z,24.41
2022-07-29T20:43:18.763Z,24.39
2022-07-29T20:45:46.493Z,24.36
2022-07-29T20:48:14.254Z,24.34
2022-07-29T20:50:42.897Z,24.31
2022-07-29T20:53:11.593Z,24.29
2022-07-29T20:55:39.339Z,24.27
2022-07-29T20:58:07.080Z,24.25
2022-07-29T21:00:34.958Z,24.24
2022-07-29T21:03:02.840Z,24.23
2022-07-29T21:05:33.052Z,24.20
2022-07-29T21:08:01.178Z,24.18
2022-07-29T21:10:29.582Z,24.17
2022-07-29T21:12:57.335Z,24.15
2022-07-29T21:15:27.211Z,24.13
2022-07-29T21:18:03.149Z,24.11
2022-07-29T21:20:31.239Z,24.09
2022-07-29T21:22:59.060Z,24.07
2022-07-29T21:25:28.504Z,24.06
2022-07-29T21:28:14.813Z,24.04
2022-07-29T21:30:42.544Z,24.03
2022-07-29T21:33:10.432Z,23.99
2022-07-29T21:36:14.905Z,23.96
2022-07-29T21:38:26.091Z,23.91
2022-07-29T21:40:54.224Z,23.88
2022-07-29T21:43:22.787Z,23.87
2022-07-29T21:45:50.657Z,23.87
2022-07-29T21:48:19.753Z,23.86
2022-07-29T21:50:48.172Z,23.87
2022-07-29T21:53:17.067Z,23.86
2022-07-29T21:55:50.718Z,23.86
2022-07-29T21:58:19.040Z,23.86
2022-07-29T22:00:46.888Z,23.85
2022-07-29T22:03:14.931Z,23.85
2022-07-29T22:05:42.720Z,23.85
2022-07-29T22:08:10.577Z,23.84
2022-07-29T22:10:38.381Z,23.83
2022-07-29T22:13:06.656Z,23.80
2022-07-29T22:15:34.581Z,23.73
2022-07-29T22:18:02.343Z,23.67
2022-07-29T22:20:30.175Z,23.63
2022-07-29T22:22:58.014Z,23.61
2022-07-29T22:25:25.757Z,23.58
2022-07-29T22:27:53.523Z,23.56
2022-07-29T22:30:21.334Z,23.55
2022-07-29T22:32:49.710Z,23.54
2022-07-29T22:35:17.810Z,23.53
2022-07-29T22:37:45.622Z,23.51
2022-07-29T22:40:13.419Z,23.47
2022-07-29T22:42:41.171Z,23.43
2022-07-29T22:45:10.642Z,23.39
2022-07-29T22:47:47.881Z,23.36
2022-07-29T22:50:17.231Z,23.32
2022-07-29T22:52:45.939Z,23.28
2022-07-29T22:55:14.810Z,23.23
2022-07-29T22:57:42.783Z,23.17
2022-07-29T23:00:11.348Z,23.11
2022-07-29T23:02:40.400Z,23.06
2022-07-29T23:05:09.070Z,23.01
2022-07-29T23:07:36.937Z,22.99
2022-07-29T23:10:05.092Z,22.97
2022-07-29T23:12:32.804Z,22.93
2022-07-29T23:15:00.563Z,22.90
2022-07-29T23:17:28.735Z,22.88
2022-07-29T23:19:56.536Z,22.86
2022-07-29T23:22:24.826Z,22.86
2022-07-29T23:24:52.548Z,22.85
2022-07-29T23:27:20.230Z,22.84
2022-07-29T23:29:47.934Z,22.83
2022-07-29T23:32:15.778Z,22.81
2022-07-29T23:34:43.677Z,22.80
2022-07-29T23:37:11.713Z,22.79
2022-07-29T23:39:39.423Z,22.77
2022-07-29T23:42:07.219Z,22.73
2022-07-29T23:44:34.986Z,22.70
2022-07-29T23:47:03.169Z,22.68
2022-07-29T23:49:31.153Z,22.66
2022-07-29T23:51:58.870Z,22.64
2022-07-29T23:54:26.557Z,22.62
2022-07-29T23:56:54.321Z,22.61
2022-07-29T23:59:22.046Z,22.57
